createdAt,value
2018-01-21T00:00:55.348Z,16.20
2018-01-21T00:02:00.534Z,16.20
2018-01-21T00:03:06.043Z,16.20
2018-01-21T00:04:11.334Z,16.20
2018-01-21T00:05:16.369Z,16.20
2018-01-21T00:06:21.420Z,16.20
2018-01-21T00:07:26.255Z,16.20
2018-01-21T00:08:31.233Z,16.20
2018-01-21T00:09:36.397Z,16.20
2018-01-21T00:10:41.317Z,16.20
2018-01-21T00:11:46.307Z,16.20
2018-01-21T00:12:51.386Z,16.20
2018-01-21T00:13:56.495Z,16.20
2018-01-21T00:15:01.404Z,16.20
2018-01-21T00:16:06.314Z,16.20
2018-01-21T00:17:11.521Z,16.20
2018-01-21T00:18:16.669Z,16.20
2018-01-21T00:19:21.756Z,16.20
2018-01-21T00:20:26.745Z,16.20
2018-01-21T00:21:31.861Z,16.20
2018-01-21T00:22:36.811Z,16.20
2018-01-21T00:23:41.882Z,16.20
2018-01-21T00:24:46.923Z,16.20
2018-01-21T00:25:51.785Z,16.20
2018-01-21T00:26:57.043Z,16.20
2018-01-21T00:28:02.127Z,16.20
2018-01-21T00:29:07.668Z,16.20
2018-01-21T00:30:13.449Z,16.20
2018-01-21T00:31:18.848Z,16.20
2018-01-21T00:32:23.672Z,16.20
2018-01-21T00:33:28.676Z,16.20
2018-01-21T00:34:33.793Z,16.20
2018-01-21T00:35:38.834Z,16.20
2018-01-21T00:36:43.737Z,16.20
2018-01-21T00:37:48.864Z,16.20
2018-01-21T00:38:54.027Z,16.20
2018-01-21T00:39:58.987Z,16.10
2018-01-21T00:41:03.898Z,16.20
2018-01-21T00:42:08.859Z,16.20
2018-01-21T00:43:13.871Z,16.10
2018-01-21T00:44:19.097Z,16.20
2018-01-21T00:45:24.042Z,16.20
2018-01-21T00:46:29.090Z,16.20
2018-01-21T00:47:35.070Z,16.20
2018-01-21T00:48:40.182Z,16.20
2018-01-21T00:49:45.223Z,16.20
2018-01-21T00:50:50.236Z,16.20
2018-01-21T00:51:55.126Z,16.10
2018-01-21T00:53:00.135Z,16.20
2018-01-21T00:54:05.211Z,16.20
2018-01-21T00:55:10.271Z,16.20
2018-01-21T00:56:15.352Z,16.20
2018-01-21T00:57:21.297Z,16.20
2018-01-21T00:58:26.226Z,16.10
2018-01-21T00:59:31.120Z,16.10
2018-01-21T01:00:36.164Z,16.20
2018-01-21T01:01:41.053Z,16.10
2018-01-21T01:02:46.275Z,16.20
2018-01-21T01:03:51.291Z,16.20
2018-01-21T01:04:56.286Z,16.20
2018-01-21T01:06:01.473Z,16.20
2018-01-21T01:07:06.375Z,16.20
2018-01-21T01:08:11.537Z,16.10
2018-01-21T01:09:16.472Z,16.20
2018-01-21T01:10:21.394Z,16.20
2018-01-21T01:11:26.427Z,16.20
2018-01-21T01:12:31.416Z,16.20
2018-01-21T01:13:36.365Z,16.20
2018-01-21T01:14:41.313Z,16.20
2018-01-21T01:15:46.355Z,16.10
2018-01-21T01:16:51.365Z,16.20
2018-01-21T01:17:56.389Z,16.10
2018-01-21T01:19:01.545Z,16.10
2018-01-21T01:20:06.731Z,16.20
2018-01-21T01:21:11.800Z,16.10
2018-01-21T01:22:16.927Z,16.20
2018-01-21T01:23:21.912Z,16.20
2018-01-21T01:24:27.187Z,16.20
2018-01-21T01:25:32.277Z,16.10
2018-01-21T01:26:37.125Z,16.20
2018-01-21T01:27:42.182Z,16.20
2018-01-21T01:28:47.072Z,16.20
2018-01-21T01:29:52.120Z,16.20
2018-01-21T01:30:57.176Z,16.20
2018-01-21T01:32:02.241Z,16.20
2018-01-21T01:33:07.207Z,16.20
2018-01-21T01:34:12.234Z,16.10
2018-01-21T01:35:17.446Z,16.20
2018-01-21T01:36:22.466Z,16.20
2018-01-21T01:37:27.566Z,16.20
2018-01-21T01:38:32.537Z,16.20
2018-01-21T01:39:37.701Z,16.20
2018-01-21T01:40:43.191Z,16.20
2018-01-21T01:41:48.199Z,16.20
2018-01-21T01:42:53.120Z,16.20
2018-01-21T01:43:58.054Z,16.10
2018-01-21T01:45:03.146Z,16.20
2018-01-21T01:46:08.074Z,16.20
2018-01-21T01:47:13.469Z,16.20
2018-01-21T01:48:18.573Z,16.10
2018-01-21T01:49:23.777Z,16.20
2018-01-21T01:50:28.672Z,16.20
2018-01-21T01:51:33.616Z,16.20
2018-01-21T01:52:38.766Z,16.10
2018-01-21T01:53:43.768Z,16.10
2018-01-21T01:54:48.749Z,16.10
2018-01-21T01:55:53.688Z,16.10
2018-01-21T01:56:58.800Z,16.20
2018-01-21T01:58:04.668Z,16.20
2018-01-21T01:59:09.655Z,16.20
2018-01-21T02:00:14.817Z,16.20
2018-01-21T02:01:19.905Z,16.20
2018-01-21T02:02:24.813Z,16.10
2018-01-21T02:03:30.007Z,16.10
2018-01-21T02:04:35.185Z,16.10
2018-01-21T02:05:40.278Z,16.10
2018-01-21T02:06:45.299Z,16.10
2018-01-21T02:07:50.942Z,16.20
2018-01-21T02:08:55.818Z,16.20
2018-01-21T02:10:00.885Z,16.10
2018-01-21T02:11:05.914Z,16.20
2018-01-21T02:12:10.825Z,16.10
2018-01-21T02:13:15.831Z,16.10
2018-01-21T02:14:20.812Z,16.10
2018-01-21T02:15:25.771Z,16.10
2018-01-21T02:16:31.440Z,16.10
2018-01-21T02:17:36.456Z,16.10
2018-01-21T02:18:41.376Z,16.10
2018-01-21T02:19:46.351Z,16.10
2018-01-21T02:20:51.353Z,16.10
2018-01-21T02:21:56.248Z,16.10
2018-01-21T02:23:01.805Z,16.10
2018-01-21T02:24:06.733Z,16.10
2018-01-21T02:25:11.627Z,16.10
2018-01-21T02:26:16.514Z,16.10
2018-01-21T02:27:21.567Z,16.10
2018-01-21T02:28:26.510Z,16.10
2018-01-21T02:29:31.399Z,16.10
2018-01-21T02:30:36.290Z,16.10
2018-01-21T02:31:41.163Z,16.10
2018-01-21T02:32:46.112Z,16.10
2018-01-21T02:33:51.087Z,16.10
2018-01-21T02:34:57.122Z,16.10
2018-01-21T02:36:02.161Z,16.10
2018-01-21T02:37:07.078Z,16.10
2018-01-21T02:38:12.024Z,16.10
2018-01-21T02:39:16.926Z,16.10
2018-01-21T02:40:21.990Z,16.10
2018-01-21T02:41:27.276Z,16.10
2018-01-21T02:42:32.205Z,16.10
2018-01-21T02:43:37.345Z,16.10
2018-01-21T02:44:42.372Z,16.10
2018-01-21T02:45:47.338Z,16.10
2018-01-21T02:46:52.332Z,16.10
2018-01-21T02:47:57.545Z,16.10
2018-01-21T02:49:02.698Z,16.10
2018-01-21T02:50:07.768Z,16.10
2018-01-21T02:51:12.721Z,16.10
2018-01-21T02:52:17.666Z,16.10
2018-01-21T02:53:22.681Z,16.10
2018-01-21T02:54:27.724Z,16.10
2018-01-21T02:55:32.806Z,16.10
2018-01-21T02:56:37.702Z,16.10
2018-01-21T02:57:42.564Z,16.10
2018-01-21T02:58:47.596Z,16.10
2018-01-21T02:59:53.207Z,16.10
2018-01-21T03:00:58.175Z,16.10
2018-01-21T03:02:03.128Z,16.10
2018-01-21T03:03:08.190Z,16.10
2018-01-21T03:04:13.109Z,16.10
2018-01-21T03:05:18.095Z,16.10
2018-01-21T03:06:23.135Z,16.10
2018-01-21T03:07:28.262Z,16.10
2018-01-21T03:08:33.183Z,16.10
2018-01-21T03:09:38.178Z,16.10
2018-01-21T03:10:43.255Z,16.10
2018-01-21T03:11:48.349Z,16.10
2018-01-21T03:12:53.347Z,16.10
2018-01-21T03:13:58.238Z,16.10
2018-01-21T03:15:03.271Z,16.10
2018-01-21T03:16:08.437Z,16.10
2018-01-21T03:17:13.457Z,16.10
2018-01-21T03:18:18.445Z,16.10
2018-01-21T03:19:23.308Z,16.10
2018-01-21T03:20:28.340Z,16.10
2018-01-21T03:21:33.338Z,16.10
2018-01-21T03:22:38.412Z,16.10
2018-01-21T03:23:43.271Z,16.10
2018-01-21T03:24:48.270Z,16.10
2018-01-21T03:25:53.159Z,16.10
2018-01-21T03:26:58.042Z,16.10
2018-01-21T03:28:03.693Z,16.10
2018-01-21T03:29:08.731Z,16.10
2018-01-21T03:30:13.652Z,16.10
2018-01-21T03:31:18.634Z,16.10
2018-01-21T03:32:23.674Z,16.10
2018-01-21T03:33:28.582Z,16.10
2018-01-21T03:34:33.616Z,16.10
2018-01-21T03:35:38.696Z,16.10
2018-01-21T03:36:43.753Z,16.10
2018-01-21T03:37:48.715Z,16.10
2018-01-21T03:38:53.642Z,16.10
2018-01-21T03:39:58.559Z,16.10
2018-01-21T03:41:03.532Z,16.10
2018-01-21T03:42:08.511Z,16.10
2018-01-21T03:43:13.507Z,16.10
2018-01-21T03:44:18.444Z,16.10
2018-01-21T03:45:24.273Z,16.10
2018-01-21T03:46:29.560Z,16.10
2018-01-21T03:47:34.620Z,16.10
2018-01-21T03:48:39.669Z,16.10
2018-01-21T03:49:44.513Z,16.10
2018-01-21T03:50:49.587Z,16.10
2018-01-21T03:51:54.639Z,16.10
2018-01-21T03:52:59.784Z,16.10
2018-01-21T03:54:05.000Z,16.10
2018-01-21T03:55:10.076Z,16.10
2018-01-21T03:56:14.985Z,16.10
2018-01-21T03:57:20.105Z,16.10
2018-01-21T03:58:25.066Z,16.10
2018-01-21T03:59:30.247Z,16.10
2018-01-21T04:00:35.298Z,16.10
2018-01-21T04:01:40.339Z,16.10
2018-01-21T04:02:45.492Z,16.10
2018-01-21T04:03:51.450Z,16.10
2018-01-21T04:04:56.489Z,16.10
2018-01-21T04:06:01.446Z,16.10
2018-01-21T04:07:06.487Z,16.10
2018-01-21T04:08:11.495Z,16.10
2018-01-21T04:09:16.508Z,16.10
2018-01-21T04:10:21.394Z,16.10
2018-01-21T04:11:26.467Z,16.10
2018-01-21T04:12:31.487Z,16.10
2018-01-21T04:13:36.485Z,16.10
2018-01-21T04:14:41.564Z,16.10
2018-01-21T04:15:46.505Z,16.10
2018-01-21T04:16:51.530Z,16.10
2018-01-21T04:17:56.388Z,16.10
2018-01-21T04:19:01.469Z,16.10
2018-01-21T04:20:06.371Z,16.10
2018-01-21T04:21:11.255Z,16.10
2018-01-21T04:22:16.473Z,16.10
2018-01-21T04:23:21.390Z,16.10
2018-01-21T04:24:26.305Z,16.10
2018-01-21T04:25:31.169Z,16.10
2018-01-21T04:26:36.137Z,16.00
2018-01-21T04:27:41.180Z,16.10
2018-01-21T04:28:46.191Z,16.10
2018-01-21T04:29:51.196Z,16.10
2018-01-21T04:30:56.221Z,16.10
2018-01-21T04:32:01.184Z,16.10
2018-01-21T04:33:06.144Z,16.10
2018-01-21T04:34:11.172Z,16.10
2018-01-21T04:35:16.112Z,16.10
2018-01-21T04:36:21.073Z,16.10
2018-01-21T04:37:26.082Z,16.10
2018-01-21T04:38:31.015Z,16.10
2018-01-21T04:39:35.994Z,16.10
2018-01-21T04:40:41.316Z,16.10
2018-01-21T04:41:46.279Z,16.10
2018-01-21T04:42:51.282Z,16.10
2018-01-21T04:43:56.159Z,16.10
2018-01-21T04:45:01.449Z,16.10
2018-01-21T04:46:06.645Z,16.10
2018-01-21T04:47:11.628Z,16.10
2018-01-21T04:48:16.498Z,16.10
2018-01-21T04:49:21.503Z,16.10
2018-01-21T04:50:26.625Z,16.10
2018-01-21T04:51:31.752Z,16.10
2018-01-21T04:52:36.613Z,16.10
2018-01-21T04:53:41.642Z,16.10
2018-01-21T04:54:46.629Z,16.00
2018-01-21T04:55:51.602Z,16.00
2018-01-21T04:56:56.628Z,16.10
2018-01-21T04:58:01.526Z,16.10
2018-01-21T04:59:06.598Z,16.10
2018-01-21T05:00:11.739Z,16.10
2018-01-21T05:01:16.548Z,16.10
2018-01-21T05:02:21.467Z,16.00
2018-01-21T05:03:26.344Z,16.10
2018-01-21T05:04:31.431Z,16.10
2018-01-21T05:05:36.349Z,16.00
2018-01-21T05:06:41.441Z,16.10
2018-01-21T05:07:46.445Z,16.10
2018-01-21T05:08:51.412Z,16.10
2018-01-21T05:09:56.587Z,16.00
2018-01-21T05:11:01.638Z,16.10
2018-01-21T05:12:06.628Z,16.10
2018-01-21T05:13:11.621Z,16.10
2018-01-21T05:14:16.612Z,16.10
2018-01-21T05:15:21.614Z,16.10
2018-01-21T05:16:26.678Z,16.10
2018-01-21T05:17:31.689Z,16.10
2018-01-21T05:18:36.704Z,16.10
2018-01-21T05:19:41.652Z,16.00
2018-01-21T05:20:46.676Z,16.10
2018-01-21T05:21:51.592Z,16.10
2018-01-21T05:22:56.688Z,16.10
2018-01-21T05:24:01.709Z,16.10
2018-01-21T05:25:06.756Z,16.00
2018-01-21T05:26:11.713Z,16.00
2018-01-21T05:27:16.666Z,16.10
2018-01-21T05:28:21.592Z,16.10
2018-01-21T05:29:26.489Z,16.00
2018-01-21T05:30:31.426Z,16.10
2018-01-21T05:31:36.433Z,16.10
2018-01-21T05:32:41.477Z,16.10
2018-01-21T05:33:46.835Z,16.00
2018-01-21T05:34:51.744Z,16.00
2018-01-21T05:35:56.897Z,16.00
2018-01-21T05:37:01.922Z,16.00
2018-01-21T05:38:06.914Z,16.00
2018-01-21T05:39:11.780Z,16.10
2018-01-21T05:40:16.727Z,16.00
2018-01-21T05:41:22.075Z,16.10
2018-01-21T05:42:26.984Z,16.00
2018-01-21T05:43:31.982Z,16.00
2018-01-21T05:44:36.875Z,16.00
2018-01-21T05:45:41.943Z,16.10
2018-01-21T05:46:46.877Z,16.00
2018-01-21T05:47:51.820Z,16.00
2018-01-21T05:48:56.725Z,16.00
2018-01-21T05:50:01.722Z,16.00
2018-01-21T05:51:06.682Z,16.00
2018-01-21T05:52:11.968Z,16.00
2018-01-21T05:53:16.717Z,16.00
2018-01-21T05:54:21.523Z,16.00
2018-01-21T05:55:26.341Z,16.00
2018-01-21T05:56:31.128Z,16.00
2018-01-21T05:57:35.960Z,16.00
2018-01-21T05:58:40.982Z,16.00
2018-01-21T05:59:45.952Z,16.00
2018-01-21T06:00:50.912Z,16.00
2018-01-21T06:01:55.853Z,16.00
2018-01-21T06:03:00.711Z,16.00
2018-01-21T06:04:05.576Z,16.00
2018-01-21T06:05:10.508Z,16.00
2018-01-21T06:06:15.414Z,16.00
2018-01-21T06:07:20.383Z,16.00
2018-01-21T06:08:25.479Z,16.00
2018-01-21T06:09:30.310Z,16.00
2018-01-21T06:10:35.497Z,16.00
2018-01-21T06:11:40.329Z,16.00
2018-01-21T06:12:45.113Z,16.00
2018-01-21T06:13:49.910Z,16.00
2018-01-21T06:14:54.930Z,16.00
2018-01-21T06:15:59.874Z,16.00
2018-01-21T06:17:04.665Z,16.00
2018-01-21T06:18:09.426Z,16.00
2018-01-21T06:19:14.245Z,16.00
2018-01-21T06:20:19.198Z,16.00
2018-01-21T06:21:24.013Z,16.00
2018-01-21T06:22:28.890Z,16.00
2018-01-21T06:23:33.812Z,16.00
2018-01-21T06:24:38.617Z,16.00
2018-01-21T06:25:44.581Z,16.00
2018-01-21T06:26:49.539Z,16.00
2018-01-21T06:27:54.484Z,16.00
2018-01-21T06:29:00.075Z,16.00
2018-01-21T06:30:04.958Z,16.00
2018-01-21T06:31:09.873Z,16.00
2018-01-21T06:32:14.631Z,16.00
2018-01-21T06:33:19.525Z,16.00
2018-01-21T06:34:24.412Z,16.00
2018-01-21T06:35:29.543Z,16.00
2018-01-21T06:36:34.453Z,16.00
2018-01-21T06:37:39.329Z,16.00
2018-01-21T06:38:44.330Z,16.00
2018-01-21T06:39:49.300Z,16.00
2018-01-21T06:40:54.120Z,16.00
2018-01-21T06:41:59.122Z,16.00
2018-01-21T06:43:04.355Z,16.00
2018-01-21T06:44:09.368Z,16.00
2018-01-21T06:45:14.217Z,16.00
2018-01-21T06:46:19.504Z,16.00
2018-01-21T06:47:24.889Z,16.00
2018-01-21T06:48:29.855Z,16.00
2018-01-21T06:49:34.794Z,16.00
2018-01-21T06:50:39.676Z,16.00
2018-01-21T06:51:44.913Z,16.00
2018-01-21T06:52:50.018Z,16.00
2018-01-21T06:53:55.110Z,16.00
2018-01-21T06:55:00.005Z,16.00
2018-01-21T06:56:04.824Z,16.00
2018-01-21T06:57:09.759Z,16.00
2018-01-21T06:58:14.777Z,16.00
2018-01-21T06:59:19.665Z,16.00
2018-01-21T07:00:24.610Z,16.00
2018-01-21T07:01:29.729Z,16.00
2018-01-21T07:02:35.116Z,15.90
2018-01-21T07:03:40.113Z,16.00
2018-01-21T07:04:46.193Z,16.00
2018-01-21T07:05:51.021Z,15.90
2018-01-21T07:06:55.842Z,16.00
2018-01-21T07:08:00.633Z,16.00
2018-01-21T07:09:05.568Z,16.00
2018-01-21T07:10:10.770Z,16.00
2018-01-21T07:11:16.321Z,16.00
2018-01-21T07:12:21.543Z,15.90
2018-01-21T07:13:27.589Z,15.90
2018-01-21T07:14:32.886Z,16.00
2018-01-21T07:15:38.289Z,16.00
2018-01-21T07:16:46.575Z,16.00
2018-01-21T07:17:51.693Z,16.00
2018-01-21T07:18:56.777Z,16.00
2018-01-21T07:20:01.799Z,16.00
2018-01-21T07:21:07.118Z,16.10
2018-01-21T07:22:12.083Z,16.10
2018-01-21T07:23:17.035Z,16.10
2018-01-21T07:24:21.885Z,16.20
2018-01-21T07:25:26.842Z,16.30
2018-01-21T07:26:31.695Z,16.40
2018-01-21T07:27:36.699Z,16.50
2018-01-21T07:28:41.592Z,16.60
2018-01-21T07:29:46.424Z,16.70
2018-01-21T07:30:51.230Z,16.80
2018-01-21T07:31:56.132Z,17.00
2018-01-21T07:33:00.978Z,17.10
2018-01-21T07:34:05.858Z,17.20
2018-01-21T07:35:10.647Z,17.30
2018-01-21T07:36:15.507Z,17.40
2018-01-21T07:37:20.487Z,17.50
2018-01-21T07:38:25.363Z,17.60
2018-01-21T07:39:30.240Z,17.70
2018-01-21T07:40:35.071Z,17.80
2018-01-21T07:41:39.942Z,17.90
2018-01-21T07:42:44.859Z,17.90
2018-01-21T07:43:50.012Z,18.00
2018-01-21T07:44:55.149Z,18.00
2018-01-21T07:45:59.950Z,17.90
2018-01-21T07:47:04.918Z,17.90
2018-01-21T07:48:10.215Z,17.90
2018-01-21T07:49:15.212Z,17.90
2018-01-21T07:50:20.178Z,17.90
2018-01-21T07:51:25.024Z,17.90
2018-01-21T07:52:29.874Z,17.90
2018-01-21T07:53:34.838Z,17.90
2018-01-21T07:54:39.901Z,17.90
2018-01-21T07:55:44.874Z,17.80
2018-01-21T07:56:49.845Z,17.80
2018-01-21T07:57:55.192Z,17.80
2018-01-21T07:59:00.280Z,17.80
2018-01-21T08:00:05.185Z,17.80
2018-01-21T08:01:10.159Z,17.80
2018-01-21T08:02:15.174Z,17.70
2018-01-21T08:03:20.016Z,17.70
2018-01-21T08:04:24.955Z,17.70
2018-01-21T08:05:29.829Z,17.70
2018-01-21T08:06:34.935Z,17.70
2018-01-21T08:07:39.784Z,17.70
2018-01-21T08:08:44.720Z,17.60
2018-01-21T08:09:49.668Z,17.60
2018-01-21T08:10:54.658Z,17.60
2018-01-21T08:11:59.639Z,17.60
2018-01-21T08:13:04.441Z,17.60
2018-01-21T08:14:09.331Z,17.50
2018-01-21T08:15:14.220Z,17.50
2018-01-21T08:16:19.766Z,17.50
2018-01-21T08:17:24.677Z,17.50
2018-01-21T08:18:29.666Z,17.50
2018-01-21T08:19:34.490Z,17.50
2018-01-21T08:20:39.444Z,17.50
2018-01-21T08:21:44.277Z,17.50
2018-01-21T08:22:49.343Z,17.50
2018-01-21T08:23:54.310Z,17.50
2018-01-21T08:24:59.408Z,17.50
2018-01-21T08:26:04.268Z,17.50
2018-01-21T08:27:09.203Z,17.40
2018-01-21T08:28:14.186Z,17.40
2018-01-21T08:29:19.133Z,17.40
2018-01-21T08:30:23.983Z,17.30
2018-01-21T08:31:28.949Z,17.30
2018-01-21T08:32:33.919Z,17.30
2018-01-21T08:33:38.933Z,17.30
2018-01-21T08:34:44.158Z,17.30
2018-01-21T08:35:49.146Z,17.30
2018-01-21T08:36:54.353Z,17.30
2018-01-21T08:37:59.328Z,17.20
2018-01-21T08:39:04.416Z,17.20
2018-01-21T08:40:09.473Z,17.20
2018-01-21T08:41:14.468Z,17.20
2018-01-21T08:43:36.463Z,17.20
2018-01-21T08:44:41.314Z,17.20
2018-01-21T08:45:46.403Z,17.10
2018-01-21T08:46:51.297Z,17.10
2018-01-21T08:47:56.279Z,17.10
2018-01-21T08:49:02.537Z,17.10
2018-01-21T08:50:07.703Z,17.10
2018-01-21T08:51:12.542Z,17.10
2018-01-21T08:52:17.393Z,17.10
2018-01-21T08:53:22.398Z,17.10
2018-01-21T08:54:27.212Z,17.00
2018-01-21T08:55:31.992Z,17.10
2018-01-21T08:56:37.033Z,17.10
2018-01-21T08:57:41.980Z,17.00
2018-01-21T08:58:46.700Z,17.00
2018-01-21T08:59:51.636Z,17.00
2018-01-21T09:00:56.590Z,17.10
2018-01-21T09:02:01.394Z,17.10
2018-01-21T09:03:06.155Z,17.10
2018-01-21T09:04:13.888Z,17.10
2018-01-21T09:05:19.318Z,17.10
2018-01-21T09:06:24.093Z,17.10
2018-01-21T09:07:29.304Z,17.10
2018-01-21T09:08:34.163Z,17.10
2018-01-21T09:09:39.067Z,17.20
2018-01-21T09:10:43.883Z,17.10
2018-01-21T09:11:49.072Z,17.10
2018-01-21T09:12:54.171Z,17.10
2018-01-21T09:13:59.020Z,17.00
2018-01-21T09:15:04.040Z,17.00
2018-01-21T09:16:09.646Z,17.00
2018-01-21T09:17:15.827Z,16.90
2018-01-21T09:18:21.532Z,16.90
2018-01-21T09:19:27.610Z,16.90
2018-01-21T09:20:32.796Z,16.90
2018-01-21T09:21:38.385Z,16.90
2018-01-21T09:22:43.787Z,16.90
2018-01-21T09:23:49.740Z,16.90
2018-01-21T09:24:55.257Z,16.90
2018-01-21T09:26:02.544Z,17.00
2018-01-21T09:27:08.247Z,16.90
2018-01-21T09:28:14.230Z,16.90
2018-01-21T09:29:20.200Z,16.90
2018-01-21T09:30:26.314Z,17.00
2018-01-21T09:31:32.446Z,17.00
2018-01-21T09:32:38.611Z,17.00
2018-01-21T09:33:44.943Z,17.00
2018-01-21T09:34:50.814Z,17.00
2018-01-21T09:35:56.100Z,17.00
2018-01-21T09:37:02.670Z,17.00
2018-01-21T09:38:13.491Z,17.00
2018-01-21T09:39:21.003Z,17.00
2018-01-21T09:40:27.258Z,17.00
2018-01-21T09:41:33.123Z,17.00
2018-01-21T09:42:38.431Z,17.00
2018-01-21T09:43:43.420Z,17.00
2018-01-21T09:44:48.840Z,16.90
2018-01-21T09:45:55.492Z,16.90
2018-01-21T09:47:02.469Z,17.00
2018-01-21T09:48:07.632Z,17.00
2018-01-21T09:49:13.125Z,17.00
2018-01-21T09:50:18.844Z,17.00
2018-01-21T09:51:25.589Z,17.00
2018-01-21T09:52:31.125Z,17.00
2018-01-21T09:53:36.592Z,17.00
2018-01-21T09:54:43.432Z,17.00
2018-01-21T09:55:48.944Z,17.00
2018-01-21T09:56:53.971Z,17.00
2018-01-21T09:57:58.758Z,17.00
2018-01-21T09:59:03.997Z,17.00
2018-01-21T10:00:08.898Z,17.00
2018-01-21T10:01:14.387Z,17.00
2018-01-21T10:02:19.219Z,17.00
2018-01-21T10:03:24.231Z,17.00
2018-01-21T10:04:29.080Z,16.90
2018-01-21T10:05:34.116Z,16.90
2018-01-21T10:06:39.131Z,16.90
2018-01-21T10:07:44.146Z,16.90
2018-01-21T10:08:49.730Z,16.90
2018-01-21T10:09:55.230Z,16.90
2018-01-21T10:11:00.255Z,16.90
2018-01-21T10:12:05.326Z,16.90
2018-01-21T10:13:10.419Z,16.90
2018-01-21T10:14:15.981Z,16.80
2018-01-21T10:15:23.635Z,16.90
2018-01-21T10:18:16.654Z,16.90
2018-01-21T10:19:21.449Z,16.90
2018-01-21T10:20:26.328Z,16.90
2018-01-21T10:21:31.283Z,17.00
2018-01-21T10:22:36.234Z,17.00
2018-01-21T10:23:41.178Z,17.00
2018-01-21T10:24:46.214Z,17.00
2018-01-21T10:25:51.389Z,17.00
2018-01-21T10:26:56.259Z,17.00
2018-01-21T10:28:01.094Z,17.00
2018-01-21T10:29:06.084Z,17.00
2018-01-21T10:30:11.162Z,17.00
2018-01-21T10:31:16.297Z,17.00
2018-01-21T10:32:21.366Z,17.00
2018-01-21T10:33:26.379Z,17.00
2018-01-21T10:34:31.401Z,17.00
2018-01-21T10:35:36.650Z,17.00
2018-01-21T10:36:41.910Z,17.00
2018-01-21T10:37:46.771Z,17.00
2018-01-21T10:38:54.367Z,17.00
2018-01-21T10:40:03.726Z,17.00
2018-01-21T10:41:09.487Z,17.00
2018-01-21T10:42:14.489Z,17.00
2018-01-21T10:43:19.390Z,17.00
2018-01-21T10:44:45.755Z,17.00
2018-01-21T10:45:52.384Z,17.00
2018-01-21T10:46:58.477Z,17.00
2018-01-21T10:49:52.826Z,17.00
2018-01-21T10:50:57.898Z,17.00
2018-01-21T10:52:02.774Z,16.90
2018-01-21T10:53:07.608Z,16.90
2018-01-21T10:54:12.545Z,16.90
2018-01-21T10:55:17.422Z,16.90
2018-01-21T10:56:22.406Z,16.90
2018-01-21T10:57:27.870Z,16.90
2018-01-21T10:58:32.803Z,16.80
2018-01-21T10:59:37.597Z,16.80
2018-01-21T11:00:42.530Z,16.80
2018-01-21T11:01:47.385Z,16.80
2018-01-21T11:02:52.375Z,16.80
2018-01-21T11:03:57.339Z,16.80
2018-01-21T11:05:02.211Z,16.80
2018-01-21T11:06:07.307Z,16.80
2018-01-21T11:07:12.258Z,16.80
2018-01-21T11:08:17.071Z,16.80
2018-01-21T11:09:21.863Z,16.80
2018-01-21T11:10:26.654Z,16.80
2018-01-21T11:11:31.509Z,16.80
2018-01-21T11:12:36.432Z,16.70
2018-01-21T11:13:41.462Z,16.70
2018-01-21T11:14:46.852Z,16.70
2018-01-21T11:15:51.997Z,16.70
2018-01-21T11:16:56.999Z,16.70
2018-01-21T11:18:01.951Z,16.70
2018-01-21T11:19:06.788Z,16.70
2018-01-21T11:20:11.659Z,16.70
2018-01-21T11:21:16.577Z,16.70
2018-01-21T11:22:21.530Z,16.70
2018-01-21T11:23:26.503Z,16.70
2018-01-21T11:24:31.367Z,16.70
2018-01-21T11:25:36.330Z,16.70
2018-01-21T11:26:41.451Z,16.70
2018-01-21T11:27:46.371Z,16.70
2018-01-21T11:28:51.272Z,16.60
2018-01-21T11:29:56.130Z,16.70
2018-01-21T11:31:01.026Z,16.70
2018-01-21T11:32:06.365Z,16.60
2018-01-21T11:33:11.303Z,16.60
2018-01-21T11:34:16.272Z,16.60
2018-01-21T11:35:21.214Z,16.60
2018-01-21T11:36:26.294Z,16.60
2018-01-21T11:37:31.169Z,16.60
2018-01-21T11:38:35.974Z,16.60
2018-01-21T11:39:40.922Z,16.60
2018-01-21T11:40:45.750Z,16.60
2018-01-21T11:41:50.709Z,16.60
2018-01-21T11:42:55.500Z,16.60
2018-01-21T11:44:00.315Z,16.60
2018-01-21T11:45:05.251Z,16.60
2018-01-21T11:46:10.213Z,16.60
2018-01-21T11:47:15.126Z,16.60
2018-01-21T11:48:19.882Z,16.50
2018-01-21T11:49:25.235Z,16.60
2018-01-21T11:50:30.149Z,16.60
2018-01-21T11:51:35.228Z,16.60
2018-01-21T11:52:40.795Z,16.50
2018-01-21T11:53:45.941Z,16.50
2018-01-21T11:54:50.894Z,16.60
2018-01-21T11:55:55.800Z,16.60
2018-01-21T11:57:00.831Z,16.60
2018-01-21T11:58:05.983Z,16.50
2018-01-21T11:59:10.988Z,16.50
2018-01-21T12:00:15.803Z,16.60
2018-01-21T12:01:20.634Z,16.50
2018-01-21T12:02:25.478Z,16.50
2018-01-21T12:03:30.318Z,16.50
2018-01-21T12:04:35.282Z,16.50
2018-01-21T12:05:40.186Z,16.50
2018-01-21T12:06:45.190Z,16.50
2018-01-21T12:07:50.092Z,16.50
2018-01-21T12:08:54.967Z,16.50
2018-01-21T12:09:59.765Z,16.50
2018-01-21T12:11:04.730Z,16.50
2018-01-21T12:12:09.602Z,16.50
2018-01-21T12:13:14.452Z,16.50
2018-01-21T12:14:19.518Z,16.60
2018-01-21T12:15:24.481Z,16.50
2018-01-21T12:16:29.410Z,16.50
2018-01-21T12:17:34.351Z,16.50
2018-01-21T12:18:39.404Z,16.50
2018-01-21T12:19:44.359Z,16.50
2018-01-21T12:20:49.368Z,16.50
2018-01-21T12:21:54.326Z,16.60
2018-01-21T12:22:59.322Z,16.50
2018-01-21T12:24:04.299Z,16.60
2018-01-21T12:25:09.375Z,16.50
2018-01-21T12:26:14.396Z,16.50
2018-01-21T12:27:19.400Z,16.60
2018-01-21T12:28:24.402Z,16.50
2018-01-21T12:29:29.387Z,16.50
2018-01-21T12:30:34.393Z,16.50
2018-01-21T12:31:40.100Z,16.50
2018-01-21T12:32:45.184Z,16.50
2018-01-21T12:33:50.330Z,16.50
2018-01-21T12:34:55.481Z,16.50
2018-01-21T12:36:00.307Z,16.50
2018-01-21T12:37:05.100Z,16.50
2018-01-21T12:38:09.965Z,16.50
2018-01-21T12:39:15.530Z,16.50
2018-01-21T12:40:21.675Z,16.50
2018-01-21T12:41:26.622Z,16.50
2018-01-21T12:42:31.544Z,16.50
2018-01-21T12:43:41.731Z,16.50
2018-01-21T12:44:47.975Z,16.50
2018-01-21T12:45:56.661Z,16.50
2018-01-21T12:49:05.618Z,16.50
2018-01-21T12:50:10.414Z,16.40
2018-01-21T12:51:15.255Z,16.50
2018-01-21T12:52:20.317Z,16.40
2018-01-21T12:53:25.174Z,16.40
2018-01-21T12:54:29.947Z,16.40
2018-01-21T12:55:34.722Z,16.40
2018-01-21T12:56:39.445Z,16.40
2018-01-21T12:57:44.351Z,16.40
2018-01-21T12:58:49.141Z,16.40
2018-01-21T12:59:53.972Z,16.40
2018-01-21T13:00:58.766Z,16.40
2018-01-21T13:02:03.504Z,16.40
2018-01-21T13:03:08.798Z,16.40
2018-01-21T13:04:13.995Z,16.40
2018-01-21T13:05:18.836Z,16.40
2018-01-21T13:06:23.660Z,16.40
2018-01-21T13:07:28.522Z,16.40
2018-01-21T13:08:33.444Z,16.40
2018-01-21T13:09:38.445Z,16.40
2018-01-21T13:10:43.186Z,16.40
2018-01-21T13:11:48.198Z,16.40
2018-01-21T13:12:53.156Z,16.40
2018-01-21T13:13:57.901Z,16.40
2018-01-21T13:15:02.688Z,16.40
2018-01-21T13:16:07.482Z,16.40
2018-01-21T13:17:12.470Z,16.40
2018-01-21T13:18:17.285Z,16.40
2018-01-21T13:19:22.010Z,16.40
2018-01-21T13:20:27.129Z,16.40
2018-01-21T13:21:32.159Z,16.40
2018-01-21T13:22:37.050Z,16.40
2018-01-21T13:23:41.925Z,16.40
2018-01-21T13:24:46.668Z,16.40
2018-01-21T13:25:51.629Z,16.40
2018-01-21T13:26:56.647Z,16.40
2018-01-21T13:28:01.501Z,16.40
2018-01-21T13:29:06.270Z,16.40
2018-01-21T13:30:11.211Z,16.40
2018-01-21T13:31:15.936Z,16.40
2018-01-21T13:32:20.728Z,16.40
2018-01-21T13:33:25.724Z,16.40
2018-01-21T13:34:30.620Z,16.40
2018-01-21T13:35:35.551Z,16.40
2018-01-21T13:36:40.394Z,16.40
2018-01-21T13:37:45.822Z,16.40
2018-01-21T13:38:50.612Z,16.40
2018-01-21T13:39:55.670Z,16.40
2018-01-21T13:41:00.840Z,16.40
2018-01-21T13:42:05.755Z,16.50
2018-01-21T13:43:10.965Z,16.50
2018-01-21T13:44:15.815Z,16.50
2018-01-21T13:45:20.662Z,16.60
2018-01-21T13:46:25.429Z,16.70
2018-01-21T13:47:30.192Z,16.70
2018-01-21T13:48:34.966Z,16.80
2018-01-21T13:49:40.102Z,17.00
2018-01-21T13:50:44.997Z,17.10
2018-01-21T13:51:49.778Z,17.10
2018-01-21T13:52:54.796Z,17.20
2018-01-21T13:54:00.953Z,17.20
2018-01-21T13:55:05.980Z,17.30
2018-01-21T13:56:10.901Z,17.40
2018-01-21T13:57:15.799Z,17.40
2018-01-21T13:58:21.553Z,17.50
2018-01-21T13:59:26.629Z,17.60
2018-01-21T14:00:31.625Z,17.70
2018-01-21T14:01:36.617Z,17.70
2018-01-21T14:02:41.461Z,17.80
2018-01-21T14:03:46.341Z,17.90
2018-01-21T14:04:51.252Z,17.90
2018-01-21T14:05:57.968Z,18.00